createdAt,value
2023-02-24T00:00:06.752Z,78.12
2023-02-24T00:00:17.798Z,78.12
2023-02-24T00:00:28.768Z,78.23
2023-02-24T00:00:39.564Z,78.23
2023-02-24T00:00:50.587Z,78.23
2023-02-24T00:01:01.556Z,78.27
2023-02-24T00:01:12.327Z,78.23
2023-02-24T00:01:23.368Z,78.33
2023-02-24T00:01:34.330Z,78.33
2023-02-24T00:01:45.103Z,78.36
2023-02-24T00:01:56.210Z,78.33
2023-02-24T00:02:07.201Z,78.33
2023-02-24T00:02:17.981Z,78.36
2023-02-24T00:02:29.129Z,78.43
2023-02-24T00:02:39.600Z,78.47
2023-02-24T00:02:50.397Z,78.47
2023-02-24T00:03:01.458Z,78.47
2023-02-24T00:03:12.398Z,78.47
2023-02-24T00:03:23.224Z,78.47
2023-02-24T00:03:34.338Z,78.47
2023-02-24T00:03:45.393Z,78.47
2023-02-24T00:03:56.133Z,78.43
2023-02-24T00:04:07.178Z,78.57
2023-02-24T00:04:18.145Z,78.57
2023-02-24T00:04:28.910Z,78.57
2023-02-24T00:04:40.152Z,78.57
2023-02-24T00:04:50.539Z,78.57
2023-02-24T00:05:01.306Z,78.57
2023-02-24T00:05:12.355Z,78.57
2023-02-24T00:05:23.320Z,78.57
2023-02-24T00:05:34.080Z,78.57
2023-02-24T00:05:45.146Z,78.57
2023-02-24T00:05:56.115Z,78.57
2023-02-24T00:06:06.878Z,78.57
2023-02-24T00:06:17.929Z,78.57
2023-02-24T00:06:28.900Z,78.57
2023-02-24T00:06:39.658Z,78.67
2023-02-24T00:06:50.705Z,78.67
2023-02-24T00:07:01.687Z,78.67
2023-02-24T00:07:12.453Z,78.67
2023-02-24T00:07:23.500Z,78.67
2023-02-24T00:07:34.485Z,78.67
2023-02-24T00:07:45.255Z,78.78
2023-02-24T00:07:56.306Z,78.78
2023-02-24T00:08:07.292Z,78.78
2023-02-24T00:08:18.039Z,78.78
2023-02-24T00:08:29.078Z,78.78
2023-02-24T00:08:40.052Z,78.78
2023-02-24T00:08:50.817Z,78.78
2023-02-24T00:09:01.862Z,78.78
2023-02-24T00:09:12.828Z,78.78
2023-02-24T00:09:23.595Z,78.78
2023-02-24T00:09:34.642Z,78.78
2023-02-24T00:09:45.606Z,78.78
2023-02-24T00:09:56.367Z,78.78
2023-02-24T00:10:07.425Z,78.78
2023-02-24T00:10:18.380Z,78.78
2023-02-24T00:10:29.147Z,78.78
2023-02-24T00:10:40.190Z,78.78
2023-02-24T00:10:51.160Z,78.78
2023-02-24T00:11:01.926Z,78.78
2023-02-24T00:11:12.977Z,78.78
2023-02-24T00:11:23.938Z,78.78
2023-02-24T00:11:34.720Z,78.78
2023-02-24T00:11:45.774Z,78.78
2023-02-24T00:11:56.734Z,78.78
2023-02-24T00:12:07.513Z,78.78
2023-02-24T00:12:18.564Z,78.78
2023-02-24T00:12:29.524Z,78.78
2023-02-24T00:12:40.307Z,78.78
2023-02-24T00:12:51.349Z,78.78
2023-02-24T00:13:02.317Z,78.78
2023-02-24T00:13:13.106Z,78.78
2023-02-24T00:13:24.129Z,78.78
2023-02-24T00:13:35.097Z,78.67
2023-02-24T00:13:45.872Z,78.67
2023-02-24T00:13:56.908Z,78.67
2023-02-24T00:14:07.896Z,78.67
2023-02-24T00:14:18.675Z,78.67
2023-02-24T00:14:29.700Z,78.67
2023-02-24T00:14:40.679Z,78.67
2023-02-24T00:14:51.429Z,78.67
2023-02-24T00:15:02.505Z,78.67
2023-02-24T00:15:13.448Z,78.67
2023-02-24T00:15:24.213Z,78.67
2023-02-24T00:15:35.268Z,78.67
2023-02-24T00:15:46.249Z,78.67
2023-02-24T00:15:57.032Z,78.67
2023-02-24T00:16:08.096Z,78.67
2023-02-24T00:16:19.243Z,78.67
2023-02-24T00:16:30.088Z,78.67
2023-02-24T00:16:40.709Z,78.67
2023-02-24T00:16:51.326Z,78.67
2023-02-24T00:17:02.316Z,78.67
2023-02-24T00:17:12.935Z,78.67
2023-02-24T00:17:23.901Z,78.67
2023-02-24T00:17:34.664Z,78.67
2023-02-24T00:17:45.724Z,78.57
2023-02-24T00:17:56.704Z,78.57
2023-02-24T00:18:07.472Z,78.57
2023-02-24T00:18:18.506Z,78.57
2023-02-24T00:18:29.476Z,78.57
2023-02-24T00:18:40.239Z,78.57
2023-02-24T00:18:51.288Z,78.57
2023-02-24T00:19:02.271Z,78.57
2023-02-24T00:19:13.183Z,78.67
2023-02-24T00:19:24.238Z,78.57
2023-02-24T00:19:35.196Z,78.64
2023-02-24T00:19:45.952Z,78.67
2023-02-24T00:19:57.002Z,78.67
2023-02-24T00:20:07.975Z,78.67
2023-02-24T00:20:18.740Z,78.67
2023-02-24T00:20:29.784Z,78.67
2023-02-24T00:20:40.751Z,78.67
2023-02-24T00:20:51.513Z,78.67
2023-02-24T00:21:02.567Z,78.67
2023-02-24T00:21:13.535Z,78.67
2023-02-24T00:21:24.293Z,78.67
2023-02-24T00:21:35.362Z,78.57
2023-02-24T00:21:46.336Z,78.57
2023-02-24T00:21:57.104Z,78.57
2023-02-24T00:22:08.206Z,78.57
2023-02-24T00:22:19.143Z,78.57
2023-02-24T00:22:29.913Z,78.57
2023-02-24T00:22:40.963Z,78.47
2023-02-24T00:22:51.945Z,78.47
2023-02-24T00:23:02.705Z,78.47
2023-02-24T00:23:13.770Z,78.57
2023-02-24T00:23:24.735Z,78.57
2023-02-24T00:23:35.556Z,78.57
2023-02-24T00:23:46.042Z,78.57
2023-02-24T00:23:57.024Z,78.57
2023-02-24T00:24:07.781Z,78.57
2023-02-24T00:24:18.839Z,78.57
2023-02-24T00:24:29.805Z,78.57
2023-02-24T00:24:40.569Z,78.57
2023-02-24T00:24:51.613Z,78.57
2023-02-24T00:25:02.594Z,78.57
2023-02-24T00:25:13.365Z,78.57
2023-02-24T00:25:24.396Z,78.57
2023-02-24T00:25:35.363Z,78.57
2023-02-24T00:25:46.141Z,78.57
2023-02-24T00:25:57.178Z,78.57
2023-02-24T00:26:08.142Z,78.57
2023-02-24T00:26:18.915Z,78.67
2023-02-24T00:26:29.959Z,78.67
2023-02-24T00:26:40.923Z,78.64
2023-02-24T00:26:51.686Z,78.67
2023-02-24T00:27:02.739Z,78.67
2023-02-24T00:27:13.733Z,78.67
2023-02-24T00:27:24.574Z,78.67
2023-02-24T00:27:35.109Z,78.57
2023-02-24T00:27:46.075Z,78.57
2023-02-24T00:27:56.847Z,78.57
2023-02-24T00:28:07.928Z,78.57
2023-02-24T00:28:18.898Z,78.57
2023-02-24T00:28:29.666Z,78.47
2023-02-24T00:28:40.720Z,78.36
2023-02-24T00:28:51.688Z,78.36
2023-02-24T00:29:02.454Z,78.33
2023-02-24T00:29:13.535Z,78.36
2023-02-24T00:29:24.468Z,78.36
2023-02-24T00:29:35.237Z,78.36
2023-02-24T00:29:46.281Z,78.36
2023-02-24T00:29:57.243Z,78.33
2023-02-24T00:30:08.017Z,78.36
2023-02-24T00:30:19.065Z,78.27
2023-02-24T00:30:30.035Z,78.27
2023-02-24T00:30:40.998Z,78.27
2023-02-24T00:30:51.689Z,78.16
2023-02-24T00:31:02.225Z,78.16
2023-02-24T00:31:13.157Z,78.16
2023-02-24T00:31:24.239Z,78.16
2023-02-24T00:31:34.726Z,78.16
2023-02-24T00:31:45.652Z,78.12
2023-02-24T00:31:56.348Z,78.16
2023-02-24T00:32:07.353Z,78.16
2023-02-24T00:32:17.817Z,78.16
2023-02-24T00:32:28.594Z,78.16
2023-02-24T00:32:39.300Z,78.16
2023-02-24T00:32:50.242Z,78.16
2023-02-24T00:33:00.834Z,78.16
2023-02-24T00:33:11.779Z,78.16
2023-02-24T00:33:22.549Z,78.16
2023-02-24T00:33:33.606Z,78.16
2023-02-24T00:33:44.574Z,78.06
2023-02-24T00:33:55.338Z,78.06
2023-02-24T00:34:06.382Z,78.06
2023-02-24T00:34:17.362Z,78.06
2023-02-24T00:34:28.129Z,78.06
2023-02-24T00:34:39.177Z,78.06
2023-02-24T00:34:50.144Z,78.06
2023-02-24T00:35:00.910Z,78.06
2023-02-24T00:35:11.965Z,78.06
2023-02-24T00:35:22.937Z,77.95
2023-02-24T00:35:33.698Z,77.95
2023-02-24T00:35:44.812Z,77.95
2023-02-24T00:35:55.724Z,77.95
2023-02-24T00:36:06.497Z,77.92
2023-02-24T00:36:17.547Z,77.95
2023-02-24T00:36:28.532Z,77.95
2023-02-24T00:36:39.287Z,77.95
2023-02-24T00:36:50.354Z,77.95
2023-02-24T00:37:01.338Z,77.95
2023-02-24T00:37:12.110Z,77.95
2023-02-24T00:37:23.131Z,77.95
2023-02-24T00:37:34.107Z,77.92
2023-02-24T00:37:44.874Z,77.92
2023-02-24T00:37:55.918Z,77.85
2023-02-24T00:38:06.901Z,77.85
2023-02-24T00:38:17.669Z,77.85
2023-02-24T00:38:28.727Z,77.81
2023-02-24T00:38:39.693Z,77.85
2023-02-24T00:38:50.483Z,77.81
2023-02-24T00:39:01.498Z,77.85
2023-02-24T00:39:12.478Z,77.81
2023-02-24T00:39:23.233Z,77.75
2023-02-24T00:39:34.286Z,77.75
2023-02-24T00:39:45.251Z,77.85
2023-02-24T00:39:56.015Z,77.75
2023-02-24T00:40:07.061Z,77.75
2023-02-24T00:40:18.028Z,77.75
2023-02-24T00:40:28.797Z,77.75
2023-02-24T00:40:39.840Z,77.75
2023-02-24T00:40:50.816Z,77.75
2023-02-24T00:41:01.577Z,77.71
2023-02-24T00:41:12.632Z,77.75
2023-02-24T00:41:23.600Z,77.75
2023-02-24T00:41:34.368Z,77.75
2023-02-24T00:41:45.414Z,77.75
2023-02-24T00:41:56.382Z,77.75
2023-02-24T00:42:07.148Z,77.75
2023-02-24T00:42:18.197Z,77.75
2023-02-24T00:42:29.157Z,77.75
2023-02-24T00:42:39.981Z,77.75
2023-02-24T00:42:50.978Z,77.75
2023-02-24T00:43:01.964Z,77.75
2023-02-24T00:43:12.745Z,77.75
2023-02-24T00:43:23.789Z,77.75
2023-02-24T00:43:34.769Z,77.65
2023-02-24T00:43:45.520Z,77.65
2023-02-24T00:43:56.580Z,77.65
2023-02-24T00:44:07.534Z,77.65
2023-02-24T00:44:18.305Z,77.65
2023-02-24T00:44:29.349Z,77.65
2023-02-24T00:44:40.371Z,77.65
2023-02-24T00:44:51.079Z,77.55
2023-02-24T00:45:02.139Z,77.55
2023-02-24T00:45:13.120Z,77.55
2023-02-24T00:45:23.864Z,77.55
2023-02-24T00:45:34.911Z,77.44
2023-02-24T00:45:45.882Z,77.44
2023-02-24T00:45:56.699Z,77.44
2023-02-24T00:46:07.731Z,77.44
2023-02-24T00:46:18.717Z,77.44
2023-02-24T00:46:29.546Z,77.44
2023-02-24T00:46:40.591Z,77.34
2023-02-24T00:46:51.530Z,77.34
2023-02-24T00:47:02.300Z,77.34
2023-02-24T00:47:13.346Z,77.34
2023-02-24T00:47:24.311Z,77.34
2023-02-24T00:47:35.093Z,77.34
2023-02-24T00:47:46.145Z,77.34
2023-02-24T00:47:57.110Z,77.34
2023-02-24T00:48:07.882Z,77.34
2023-02-24T00:48:18.934Z,77.23
2023-02-24T00:48:29.901Z,77.23
2023-02-24T00:48:40.671Z,77.23
2023-02-24T00:48:51.715Z,77.23
2023-02-24T00:49:02.682Z,77.23
2023-02-24T00:49:13.481Z,77.23
2023-02-24T00:49:24.560Z,77.23
2023-02-24T00:49:35.516Z,77.23
2023-02-24T00:49:46.346Z,77.34
2023-02-24T00:49:57.339Z,77.34
2023-02-24T00:50:08.299Z,77.34
2023-02-24T00:50:19.063Z,77.34
2023-02-24T00:50:30.115Z,77.34
2023-02-24T00:50:41.080Z,77.34
2023-02-24T00:50:51.841Z,77.34
2023-02-24T00:51:03.892Z,77.34
2023-02-24T00:51:13.722Z,77.34
2023-02-24T00:51:24.484Z,77.34
2023-02-24T00:51:35.531Z,77.34
2023-02-24T00:51:46.496Z,77.34
2023-02-24T00:51:57.288Z,77.34
2023-02-24T00:52:08.320Z,77.34
2023-02-24T00:52:19.316Z,77.34
2023-02-24T00:52:30.055Z,77.34
2023-02-24T00:52:41.112Z,77.34
2023-02-24T00:52:52.091Z,77.34
2023-02-24T00:53:02.868Z,77.34
2023-02-24T00:53:13.922Z,77.34
2023-02-24T00:53:24.903Z,77.34
2023-02-24T00:53:35.669Z,77.34
2023-02-24T00:53:46.710Z,77.37
2023-02-24T00:53:57.691Z,77.34
2023-02-24T00:54:08.440Z,77.34
2023-02-24T00:54:19.492Z,77.34
2023-02-24T00:54:30.457Z,77.34
2023-02-24T00:54:41.220Z,77.34
2023-02-24T00:54:52.269Z,77.34
2023-02-24T00:55:03.241Z,77.37
2023-02-24T00:55:14.069Z,77.34
2023-02-24T00:55:24.543Z,77.37
2023-02-24T00:55:35.519Z,77.34
2023-02-24T00:55:46.297Z,77.34
2023-02-24T00:55:57.343Z,77.34
2023-02-24T00:56:08.323Z,77.34
2023-02-24T00:56:19.092Z,77.44
2023-02-24T00:56:30.142Z,77.34
2023-02-24T00:56:41.111Z,77.48
2023-02-24T00:56:51.876Z,77.48
2023-02-24T00:57:02.988Z,77.48
2023-02-24T00:57:13.889Z,77.48
2023-02-24T00:57:24.660Z,77.44
2023-02-24T00:57:35.704Z,77.44
2023-02-24T00:57:46.688Z,77.48
2023-02-24T00:57:57.462Z,77.44
2023-02-24T00:58:08.533Z,77.48
2023-02-24T00:58:19.519Z,77.48
2023-02-24T00:58:30.255Z,77.48
2023-02-24T00:58:41.302Z,77.48
2023-02-24T00:58:52.270Z,77.48
2023-02-24T00:59:03.034Z,77.37
2023-02-24T00:59:14.081Z,77.37
2023-02-24T00:59:25.046Z,77.37
2023-02-24T00:59:35.812Z,77.34
2023-02-24T00:59:46.863Z,77.37
2023-02-24T00:59:57.832Z,77.27
2023-02-24T01:00:08.596Z,77.27
2023-02-24T01:00:19.655Z,77.27
2023-02-24T01:00:30.677Z,77.17
2023-02-24T01:00:41.444Z,77.17
2023-02-24T01:00:52.482Z,77.17
2023-02-24T01:01:03.464Z,77.17
2023-02-24T01:01:14.373Z,77.17
2023-02-24T01:01:24.875Z,77.17
2023-02-24T01:01:35.860Z,77.17
2023-02-24T01:01:46.734Z,77.17
2023-02-24T01:01:57.250Z,77.17
2023-02-24T01:02:08.249Z,77.17
2023-02-24T01:02:19.003Z,77.17
2023-02-24T01:02:30.032Z,77.17
2023-02-24T01:02:40.996Z,77.17
2023-02-24T01:02:51.764Z,77.17
2023-02-24T01:03:02.826Z,77.17
2023-02-24T01:03:13.786Z,77.17
2023-02-24T01:03:24.552Z,77.17
2023-02-24T01:03:35.694Z,77.17
2023-02-24T01:03:46.658Z,77.17
2023-02-24T01:03:57.536Z,77.17
2023-02-24T01:04:08.085Z,77.17
2023-02-24T01:04:19.168Z,77.17
2023-02-24T01:04:29.909Z,77.27
2023-02-24T01:04:40.954Z,77.27
2023-02-24T01:04:51.916Z,77.27
2023-02-24T01:05:02.680Z,77.27
2023-02-24T01:05:13.727Z,77.27
2023-02-24T01:05:24.697Z,77.27
2023-02-24T01:05:35.462Z,77.37
2023-02-24T01:05:46.516Z,77.37
2023-02-24T01:05:57.480Z,77.37
2023-02-24T01:06:08.256Z,77.37
2023-02-24T01:06:19.308Z,77.37
2023-02-24T01:06:30.272Z,77.37
2023-02-24T01:06:41.047Z,77.37
2023-02-24T01:06:52.122Z,77.37
2023-02-24T01:07:03.062Z,77.37
2023-02-24T01:07:13.848Z,77.37
2023-02-24T01:07:24.875Z,77.37
2023-02-24T01:07:35.851Z,77.37
2023-02-24T01:07:46.611Z,77.37
2023-02-24T01:07:57.660Z,77.37
2023-02-24T01:08:08.630Z,77.37
2023-02-24T01:08:19.395Z,77.37
2023-02-24T01:08:30.449Z,77.37
2023-02-24T01:08:41.442Z,77.37
2023-02-24T01:08:52.212Z,77.37
2023-02-24T01:09:03.254Z,77.37
2023-02-24T01:09:14.233Z,77.31
2023-02-24T01:09:24.989Z,77.37
2023-02-24T01:09:36.034Z,77.37
2023-02-24T01:09:47.005Z,77.41
2023-02-24T01:09:57.775Z,77.37
2023-02-24T01:10:08.830Z,77.37
2023-02-24T01:10:19.788Z,77.41
2023-02-24T01:10:30.553Z,77.51
2023-02-24T01:10:41.599Z,77.51
2023-02-24T01:10:52.568Z,77.51
2023-02-24T01:11:03.336Z,77.51
2023-02-24T01:11:14.388Z,77.51
2023-02-24T01:11:25.358Z,77.48
2023-02-24T01:11:36.189Z,77.51
2023-02-24T01:11:47.218Z,77.41
2023-02-24T01:11:58.227Z,77.41
2023-02-24T01:12:09.047Z,77.37
2023-02-24T01:12:20.057Z,77.41
2023-02-24T01:12:31.005Z,77.41
2023-02-24T01:12:41.771Z,77.41
2023-02-24T01:12:52.820Z,77.41
2023-02-24T01:13:03.794Z,77.31
2023-02-24T01:13:14.591Z,77.31
2023-02-24T01:13:25.617Z,77.31
2023-02-24T01:13:36.586Z,77.20
2023-02-24T01:13:47.370Z,77.20
2023-02-24T01:13:58.410Z,77.20
2023-02-24T01:14:09.380Z,77.31
2023-02-24T01:14:20.148Z,77.31
2023-02-24T01:14:31.190Z,77.31
2023-02-24T01:14:42.156Z,77.31
2023-02-24T01:14:52.965Z,77.31
2023-02-24T01:15:03.980Z,77.31
2023-02-24T01:15:14.973Z,77.41
2023-02-24T01:15:25.734Z,77.41
2023-02-24T01:15:36.779Z,77.41
2023-02-24T01:15:47.786Z,77.41
2023-02-24T01:15:58.577Z,77.41
2023-02-24T01:16:09.697Z,77.41
2023-02-24T01:16:20.150Z,77.41
2023-02-24T01:16:30.930Z,77.41
2023-02-24T01:16:41.928Z,77.41
2023-02-24T01:16:52.900Z,77.41
2023-02-24T01:17:03.696Z,77.41
2023-02-24T01:17:14.726Z,77.41
2023-02-24T01:17:25.782Z,77.41
2023-02-24T01:17:36.527Z,77.51
2023-02-24T01:17:47.562Z,77.51
2023-02-24T01:17:58.537Z,77.51
2023-02-24T01:18:09.309Z,77.51
2023-02-24T01:18:20.354Z,77.62
2023-02-24T01:18:31.332Z,77.62
2023-02-24T01:18:42.112Z,77.62
2023-02-24T01:18:53.201Z,77.62
2023-02-24T01:19:04.168Z,77.72
2023-02-24T01:19:14.926Z,77.72
2023-02-24T01:19:25.973Z,77.72
2023-02-24T01:19:36.940Z,77.82
2023-02-24T01:19:47.711Z,77.82
2023-02-24T01:19:58.758Z,77.82
2023-02-24T01:20:09.730Z,77.82
2023-02-24T01:20:20.496Z,77.92
2023-02-24T01:20:31.535Z,77.92
2023-02-24T01:20:42.500Z,77.92
2023-02-24T01:20:53.273Z,77.92
2023-02-24T01:21:04.321Z,78.03
2023-02-24T01:21:15.296Z,78.03
2023-02-24T01:21:26.058Z,78.03
2023-02-24T01:21:37.100Z,78.03
2023-02-24T01:21:48.072Z,78.03
2023-02-24T01:21:58.832Z,78.03
2023-02-24T01:22:09.893Z,78.13
2023-02-24T01:22:20.864Z,78.13
2023-02-24T01:22:31.621Z,78.13
2023-02-24T01:22:42.680Z,78.13
2023-02-24T01:22:53.702Z,78.13
2023-02-24T01:23:04.433Z,78.13
2023-02-24T01:23:15.490Z,78.13
2023-02-24T01:23:26.451Z,78.13
2023-02-24T01:23:37.218Z,78.03
2023-02-24T01:23:48.264Z,78.03
2023-02-24T01:23:59.250Z,78.03
2023-02-24T01:24:10.034Z,78.03
2023-02-24T01:24:21.078Z,78.03
2023-02-24T01:24:32.048Z,78.13
2023-02-24T01:24:42.814Z,78.13
2023-02-24T01:24:53.857Z,78.13
2023-02-24T01:25:04.868Z,78.13
2023-02-24T01:25:15.619Z,78.13
2023-02-24T01:25:26.665Z,78.13
2023-02-24T01:25:37.643Z,78.13
2023-02-24T01:25:48.412Z,78.13
2023-02-24T01:25:59.460Z,78.13
2023-02-24T01:26:10.431Z,78.13
2023-02-24T01:26:21.183Z,78.13
2023-02-24T01:26:32.243Z,78.13
2023-02-24T01:26:43.198Z,78.13
2023-02-24T01:26:53.965Z,78.13
2023-02-24T01:27:05.012Z,78.13
2023-02-24T01:27:15.982Z,78.13
2023-02-24T01:27:26.742Z,78.13
2023-02-24T01:27:37.800Z,78.13
2023-02-24T01:27:48.782Z,78.13
2023-02-24T01:27:59.535Z,78.13
2023-02-24T01:28:10.579Z,78.13
2023-02-24T01:28:21.552Z,78.13
2023-02-24T01:28:32.321Z,78.13
2023-02-24T01:28:43.371Z,78.13
2023-02-24T01:28:54.331Z,78.03
2023-02-24T01:29:05.134Z,78.13
2023-02-24T01:29:16.200Z,78.03
2023-02-24T01:29:27.169Z,78.17
2023-02-24T01:29:37.935Z,78.13
2023-02-24T01:29:48.997Z,78.13
2023-02-24T01:29:59.951Z,78.13
2023-02-24T01:30:10.719Z,78.23
2023-02-24T01:30:21.772Z,78.23
2023-02-24T01:30:32.750Z,78.23
2023-02-24T01:30:43.528Z,78.23
2023-02-24T01:30:54.671Z,78.23
2023-02-24T01:31:05.713Z,78.33
2023-02-24T01:31:16.565Z,78.33
2023-02-24T01:31:27.174Z,78.37
2023-02-24T01:31:38.398Z,78.44
2023-02-24T01:31:50.086Z,78.44
2023-02-24T01:32:00.352Z,78.44
2023-02-24T01:32:11.363Z,78.44
2023-02-24T01:32:22.423Z,78.54
2023-02-24T01:32:33.256Z,78.54
2023-02-24T01:32:43.934Z,78.54
2023-02-24T01:32:55.011Z,78.54
2023-02-24T01:33:05.746Z,78.54
2023-02-24T01:33:16.342Z,78.58
2023-02-24T01:33:27.181Z,78.54
2023-02-24T01:33:37.675Z,78.54
2023-02-24T01:33:48.635Z,78.58
2023-02-24T01:33:59.405Z,78.54
2023-02-24T01:34:10.474Z,78.54
2023-02-24T01:34:21.444Z,78.54
2023-02-24T01:34:32.206Z,78.54
2023-02-24T01:34:43.253Z,78.54
2023-02-24T01:34:54.217Z,78.54
2023-02-24T01:35:04.988Z,78.54
2023-02-24T01:35:16.032Z,78.58
2023-02-24T01:35:26.995Z,78.58
2023-02-24T01:35:37.765Z,78.54
2023-02-24T01:35:48.810Z,78.54
2023-02-24T01:35:59.778Z,78.54
2023-02-24T01:36:10.538Z,78.54
2023-02-24T01:36:21.584Z,78.54
2023-02-24T01:36:32.571Z,78.54
2023-02-24T01:36:43.339Z,78.44
2023-02-24T01:36:54.376Z,78.47
2023-02-24T01:37:05.344Z,78.58
2023-02-24T01:37:16.144Z,78.54
2023-02-24T01:37:27.189Z,78.58
2023-02-24T01:37:38.147Z,78.58
2023-02-24T01:37:48.925Z,78.54
2023-02-24T01:37:59.992Z,78.58
2023-02-24T01:38:10.962Z,78.58
2023-02-24T01:38:21.737Z,78.68
2023-02-24T01:38:32.770Z,78.64
2023-02-24T01:38:43.765Z,78.68
2023-02-24T01:38:54.536Z,78.68
2023-02-24T01:39:05.600Z,78.68
2023-02-24T01:39:16.557Z,78.68
2023-02-24T01:39:27.323Z,78.68
2023-02-24T01:39:38.379Z,78.68
2023-02-24T01:39:49.341Z,78.68
2023-02-24T01:40:00.147Z,78.78
2023-02-24T01:40:11.151Z,78.78
2023-02-24T01:40:22.128Z,78.78
2023-02-24T01:40:32.881Z,78.78
2023-02-24T01:40:43.926Z,78.78
2023-02-24T01:40:54.893Z,78.78
2023-02-24T01:41:05.658Z,78.78
2023-02-24T01:41:16.722Z,78.78
2023-02-24T01:41:27.719Z,78.78
2023-02-24T01:41:38.453Z,78.75
2023-02-24T01:41:49.493Z,78.78
2023-02-24T01:42:00.460Z,78.78
2023-02-24T01:42:11.228Z,78.89
2023-02-24T01:42:22.279Z,78.78
2023-02-24T01:42:33.244Z,78.89
2023-02-24T01:42:44.032Z,78.89
2023-02-24T01:42:55.085Z,78.89
2023-02-24T01:43:06.047Z,78.89
2023-02-24T01:43:16.813Z,78.89
2023-02-24T01:43:27.856Z,78.78
2023-02-24T01:43:38.834Z,78.78
2023-02-24T01:43:49.606Z,78.78
2023-02-24T01:44:00.664Z,78.78
2023-02-24T01:44:11.628Z,78.78
2023-02-24T01:44:22.452Z,78.78
2023-02-24T01:44:33.453Z,78.78
2023-02-24T01:44:44.419Z,78.78
2023-02-24T01:44:55.190Z,78.78
2023-02-24T01:45:06.241Z,78.78
2023-02-24T01:45:17.220Z,78.68
2023-02-24T01:45:27.967Z,78.68
2023-02-24T01:45:39.021Z,78.68
2023-02-24T01:45:49.978Z,78.68
2023-02-24T01:46:00.750Z,78.68
2023-02-24T01:46:11.836Z,78.68
2023-02-24T01:46:22.817Z,78.68
2023-02-24T01:46:33.591Z,78.68
2023-02-24T01:46:44.705Z,78.68
2023-02-24T01:46:55.724Z,78.68
2023-02-24T01:47:06.475Z,78.64
2023-02-24T01:47:17.530Z,78.68
2023-02-24T01:47:28.111Z,78.68
2023-02-24T01:47:38.874Z,78.68
2023-02-24T01:47:49.923Z,78.68
2023-02-24T01:48:00.898Z,78.68
2023-02-24T01:48:11.654Z,78.68
2023-02-24T01:48:22.706Z,78.68
2023-02-24T01:48:33.666Z,78.68
2023-02-24T01:48:44.433Z,78.68
2023-02-24T01:48:55.492Z,78.58
2023-02-24T01:49:06.462Z,78.68
2023-02-24T01:49:17.250Z,78.58
2023-02-24T01:49:28.302Z,78.58
2023-02-24T01:49:39.279Z,78.58
2023-02-24T01:49:50.039Z,78.64
2023-02-24T01:50:01.092Z,78.68
2023-02-24T01:50:12.057Z,78.68
2023-02-24T01:50:22.821Z,78.68
2023-02-24T01:50:33.861Z,78.58
2023-02-24T01:50:44.829Z,78.58
2023-02-24T01:50:55.643Z,78.54
2023-02-24T01:51:06.696Z,78.58
2023-02-24T01:51:17.906Z,78.58
2023-02-24T01:51:28.778Z,78.58
2023-02-24T01:51:39.826Z,78.58
2023-02-24T01:51:50.787Z,78.58
2023-02-24T01:52:01.550Z,78.54
2023-02-24T01:52:12.616Z,78.58
2023-02-24T01:52:23.584Z,78.47
2023-02-24T01:52:34.357Z,78.44
2023-02-24T01:52:45.394Z,78.47
2023-02-24T01:52:56.356Z,78.47
2023-02-24T01:53:07.129Z,78.44
2023-02-24T01:53:18.176Z,78.33
2023-02-24T01:53:29.143Z,78.37
2023-02-24T01:53:39.909Z,78.33
2023-02-24T01:53:50.952Z,78.37
2023-02-24T01:54:01.948Z,78.23
2023-02-24T01:54:12.701Z,78.23
2023-02-24T01:54:23.745Z,78.23
2023-02-24T01:54:34.726Z,78.13
2023-02-24T01:54:45.487Z,78.13
2023-02-24T01:54:56.538Z,78.13
2023-02-24T01:55:07.505Z,78.13
2023-02-24T01:55:18.271Z,78.17
2023-02-24T01:55:29.450Z,78.13
2023-02-24T01:55:40.379Z,78.17
2023-02-24T01:55:51.153Z,78.13
2023-02-24T01:56:02.177Z,78.13
2023-02-24T01:56:13.142Z,78.13
2023-02-24T01:56:23.907Z,78.13
2023-02-24T01:56:34.964Z,78.13
2023-02-24T01:56:45.951Z,78.13
2023-02-24T01:56:56.703Z,78.03
2023-02-24T01:57:07.767Z,78.03
2023-02-24T01:57:18.735Z,78.06
2023-02-24T01:57:29.496Z,78.03
2023-02-24T01:57:40.548Z,78.06
2023-02-24T01:57:51.525Z,78.03
2023-02-24T01:58:02.292Z,77.92
2023-02-24T01:58:13.351Z,77.92
2023-02-24T01:58:24.305Z,77.92
2023-02-24T01:58:35.071Z,77.92
2023-02-24T01:58:46.122Z,77.92
2023-02-24T01:58:57.084Z,77.92
2023-02-24T01:59:07.861Z,77.92
2023-02-24T01:59:18.922Z,77.86
2023-02-24T01:59:29.893Z,77.82
2023-02-24T01:59:40.670Z,77.82
2023-02-24T01:59:51.710Z,77.82
2023-02-24T02:00:02.737Z,77.86
2023-02-24T02:00:13.494Z,77.86
2023-02-24T02:00:24.531Z,77.72
2023-02-24T02:00:35.496Z,77.72
2023-02-24T02:00:46.262Z,77.72
2023-02-24T02:00:57.321Z,77.75
2023-02-24T02:01:08.299Z,77.75
2023-02-24T02:01:19.548Z,77.72
2023-02-24T02:01:29.734Z,77.75
2023-02-24T02:01:40.893Z,77.72
2023-02-24T02:01:51.761Z,77.72
2023-02-24T02:02:02.409Z,77.65
2023-02-24T02:02:12.962Z,77.65
2023-02-24T02:02:23.894Z,77.65
2023-02-24T02:02:34.503Z,77.62
2023-02-24T02:02:45.186Z,77.65
2023-02-24T02:02:56.002Z,77.62
2023-02-24T02:03:07.023Z,77.65
2023-02-24T02:03:17.985Z,77.62
2023-02-24T02:03:28.793Z,77.62
2023-02-24T02:03:39.824Z,77.51
2023-02-24T02:03:50.807Z,77.65
2023-02-24T02:04:01.567Z,77.55
2023-02-24T02:04:12.625Z,77.55
2023-02-24T02:04:23.592Z,77.55
2023-02-24T02:04:34.355Z,77.55
2023-02-24T02:04:45.421Z,77.55
2023-02-24T02:04:56.400Z,77.55
2023-02-24T02:05:07.170Z,77.65
2023-02-24T02:05:18.214Z,77.55
2023-02-24T02:05:29.188Z,77.65
2023-02-24T02:05:39.965Z,77.55
2023-02-24T02:05:50.993Z,77.65
2023-02-24T02:06:01.959Z,77.65
2023-02-24T02:06:12.741Z,77.65
2023-02-24T02:06:23.792Z,77.62
2023-02-24T02:06:34.801Z,77.65
2023-02-24T02:06:45.568Z,77.65
2023-02-24T02:06:56.613Z,77.62
2023-02-24T02:07:07.580Z,77.65
2023-02-24T02:07:18.351Z,77.65
2023-02-24T02:07:29.388Z,77.55
2023-02-24T02:07:40.364Z,77.55
2023-02-24T02:07:51.121Z,77.62
2023-02-24T02:08:01.755Z,77.65
2023-02-24T02:08:12.723Z,77.65
2023-02-24T02:08:23.524Z,77.65
2023-02-24T02:08:34.566Z,77.55
2023-02-24T02:08:45.531Z,77.55
2023-02-24T02:08:56.299Z,77.55
2023-02-24T02:09:07.364Z,77.45
2023-02-24T02:09:18.338Z,77.45
2023-02-24T02:09:29.109Z,77.55
2023-02-24T02:09:40.148Z,77.55
2023-02-24T02:09:51.119Z,77.51
2023-02-24T02:10:01.878Z,77.51
2023-02-24T02:10:12.941Z,77.55
2023-02-24T02:10:23.902Z,77.55
2023-02-24T02:10:34.684Z,77.55
2023-02-24T02:10:45.746Z,77.45
2023-02-24T02:10:56.703Z,77.45
2023-02-24T02:11:07.485Z,77.45
2023-02-24T02:11:18.895Z,77.45
2023-02-24T02:11:29.496Z,77.45
2023-02-24T02:11:40.263Z,77.45
2023-02-24T02:11:51.305Z,77.45
2023-02-24T02:12:02.280Z,77.45
2023-02-24T02:12:13.053Z,77.45
2023-02-24T02:12:24.106Z,77.45
2023-02-24T02:12:35.098Z,77.45
2023-02-24T02:12:45.851Z,77.45
2023-02-24T02:12:56.917Z,77.34
2023-02-24T02:13:07.872Z,77.31
2023-02-24T02:13:18.680Z,77.34
2023-02-24T02:13:29.791Z,77.34
2023-02-24T02:13:40.880Z,77.24
2023-02-24T02:13:51.696Z,77.24
2023-02-24T02:14:02.221Z,77.20
2023-02-24T02:14:13.165Z,77.24
2023-02-24T02:14:23.942Z,77.20
2023-02-24T02:14:34.983Z,77.14
2023-02-24T02:14:45.964Z,77.14
2023-02-24T02:14:56.720Z,77.14
2023-02-24T02:15:07.780Z,77.03
2023-02-24T02:15:18.736Z,77.03
2023-02-24T02:15:29.498Z,77.03
2023-02-24T02:15:40.547Z,77.03
2023-02-24T02:15:51.566Z,77.03
2023-02-24T02:16:02.370Z,77.00
2023-02-24T02:16:13.439Z,77.03
2023-02-24T02:16:24.477Z,77.03
2023-02-24T02:16:35.303Z,77.03
2023-02-24T02:16:46.297Z,77.00
2023-02-24T02:16:57.266Z,77.03
2023-02-24T02:17:08.059Z,77.03
2023-02-24T02:17:19.107Z,77.03
2023-02-24T02:17:30.077Z,76.93
2023-02-24T02:17:40.842Z,76.93
2023-02-24T02:17:51.884Z,76.93
2023-02-24T02:18:02.894Z,76.93
2023-02-24T02:18:13.630Z,76.90
2023-02-24T02:18:24.694Z,76.93
2023-02-24T02:18:35.655Z,76.93
2023-02-24T02:18:46.431Z,76.93
2023-02-24T02:18:57.540Z,76.93
2023-02-24T02:19:08.446Z,76.93
2023-02-24T02:19:19.227Z,76.83
2023-02-24T02:19:30.270Z,76.83
2023-02-24T02:19:41.242Z,76.83
2023-02-24T02:19:52.042Z,76.83
2023-02-24T02:20:03.069Z,76.83
2023-02-24T02:20:14.037Z,76.73
2023-02-24T02:20:24.813Z,76.73
2023-02-24T02:20:35.874Z,76.73